sensor_id;sensor_type;location;lat;lon;timestamp;P1;durP1;ratioP1;P2;durP2;ratioP2
9771;SDS011;4925;52.588;13.370;2022-12-05T00:00:45;78.80;;;33.10;;
9771;SDS011;4925;52.588;13.370;2022-12-05T00:03:11;74.00;;;32.00;;
9771;SDS011;4925;52.588;13.370;2022-12-05T00:05:40;74.97;;;33.23;;
9771;SDS011;4925;52.588;13.370;2022-12-05T00:08:06;76.47;;;32.77;;
9771;SDS011;4925;52.588;13.370;2022-12-05T00:10:34;65.83;;;31.07;;
9771;SDS011;4925;52.588;13.370;2022-12-05T00:13:00;72.20;;;32.00;;
9771;SDS011;4925;52.588;13.370;2022-12-05T00:15:26;76.63;;;32.53;;
9771;SDS011;4925;52.588;13.370;2022-12-05T00:17:51;75.73;;;32.63;;
9771;SDS011;4925;52.588;13.370;2022-12-05T00:20:17;78.87;;;32.37;;
9771;SDS011;4925;52.588;13.370;2022-12-05T00:22:43;83.40;;;34.70;;
9771;SDS011;4925;52.588;13.370;2022-12-05T00:25:08;80.10;;;33.33;;
9771;SDS011;4925;52.588;13.370;2022-12-05T00:27:34;69.57;;;30.57;;
9771;SDS011;4925;52.588;13.370;2022-12-05T00:30:00;67.87;;;32.63;;
9771;SDS011;4925;52.588;13.370;2022-12-05T00:32:29;79.80;;;31.30;;
9771;SDS011;4925;52.588;13.370;2022-12-05T00:34:55;80.90;;;33.13;;
9771;SDS011;4925;52.588;13.370;2022-12-05T00:37:21;82.27;;;32.33;;
9771;SDS011;4925;52.588;13.370;2022-12-05T00:39:48;70.43;;;32.17;;
9771;SDS011;4925;52.588;13.370;2022-12-05T00:42:13;71.43;;;33.40;;
9771;SDS011;4925;52.588;13.370;2022-12-05T00:44:39;77.93;;;33.93;;
9771;SDS011;4925;52.588;13.370;2022-12-05T00:47:05;67.83;;;31.73;;
9771;SDS011;4925;52.588;13.370;2022-12-05T00:49:31;70.97;;;32.30;;
9771;SDS011;4925;52.588;13.370;2022-12-05T00:51:56;69.73;;;32.10;;
9771;SDS011;4925;52.588;13.370;2022-12-05T00:54:22;74.00;;;32.93;;
9771;SDS011;4925;52.588;13.370;2022-12-05T00:56:48;74.33;;;32.83;;
9771;SDS011;4925;52.588;13.370;2022-12-05T00:59:17;69.97;;;31.20;;
9771;SDS011;4925;52.588;13.370;2022-12-05T01:01:44;69.20;;;30.70;;
9771;SDS011;4925;52.588;13.370;2022-12-05T01:04:12;66.60;;;31.13;;
9771;SDS011;4925;52.588;13.370;2022-12-05T01:06:40;76.67;;;32.77;;
9771;SDS011;4925;52.588;13.370;2022-12-05T01:09:06;69.60;;;31.43;;
9771;SDS011;4925;52.588;13.370;2022-12-05T01:11:32;69.70;;;30.83;;
9771;SDS011;4925;52.588;13.370;2022-12-05T01:14:00;65.63;;;31.80;;
9771;SDS011;4925;52.588;13.370;2022-12-05T01:16:27;67.87;;;31.90;;
9771;SDS011;4925;52.588;13.370;2022-12-05T01:18:55;76.27;;;32.40;;
9771;SDS011;4925;52.588;13.370;2022-12-05T01:21:22;71.70;;;31.83;;
9771;SDS011;4925;52.588;13.370;2022-12-05T01:23:48;76.13;;;32.80;;
9771;SDS011;4925;52.588;13.370;2022-12-05T01:26:15;80.50;;;33.37;;
9771;SDS011;4925;52.588;13.370;2022-12-05T01:28:42;73.13;;;32.63;;
9771;SDS011;4925;52.588;13.370;2022-12-05T01:31:17;72.13;;;31.37;;
9771;SDS011;4925;52.588;13.370;2022-12-05T01:33:45;68.67;;;32.20;;
9771;SDS011;4925;52.588;13.370;2022-12-05T01:36:11;70.93;;;31.63;;
9771;SDS011;4925;52.588;13.370;2022-12-05T01:38:38;69.97;;;31.77;;
9771;SDS011;4925;52.588;13.370;2022-12-05T01:41:05;66.63;;;32.03;;
9771;SDS011;4925;52.588;13.370;2022-12-05T01:43:32;69.40;;;33.00;;
9771;SDS011;4925;52.588;13.370;2022-12-05T01:45:57;74.67;;;33.23;;
9771;SDS011;4925;52.588;13.370;2022-12-05T01:48:32;71.50;;;32.13;;
9771;SDS011;4925;52.588;13.370;2022-12-05T01:51:00;64.67;;;31.77;;
9771;SDS011;4925;52.588;13.370;2022-12-05T01:53:27;70.53;;;32.07;;
9771;SDS011;4925;52.588;13.370;2022-12-05T01:55:53;72.00;;;31.60;;
9771;SDS011;4925;52.588;13.370;2022-12-05T01:58:19;69.37;;;30.77;;
9771;SDS011;4925;52.588;13.370;2022-12-05T02:00:48;72.33;;;31.60;;
9771;SDS011;4925;52.588;13.370;2022-12-05T02:03:16;74.03;;;32.97;;
9771;SDS011;4925;52.588;13.370;2022-12-05T02:05:43;70.73;;;31.97;;
9771;SDS011;4925;52.588;13.370;2022-12-05T02:08:12;72.57;;;33.93;;
9771;SDS011;4925;52.588;13.370;2022-12-05T02:10:42;71.00;;;33.50;;
9771;SDS011;4925;52.588;13.370;2022-12-05T02:19:17;81.93;;;35.70;;
9771;SDS011;4925;52.588;13.370;2022-12-05T02:30:12;79.47;;;32.47;;
9771;SDS011;4925;52.588;13.370;2022-12-05T02:32:59;91.30;;;35.03;;
9771;SDS011;4925;52.588;13.370;2022-12-05T02:35:44;81.53;;;33.67;;
9771;SDS011;4925;52.588;13.370;2022-12-05T02:46:15;76.90;;;32.70;;
9771;SDS011;4925;52.588;13.370;2022-12-05T02:48:45;71.10;;;31.17;;
9771;SDS011;4925;52.588;13.370;2022-12-05T02:51:13;70.57;;;31.47;;
9771;SDS011;4925;52.588;13.370;2022-12-05T02:53:43;77.47;;;32.27;;
9771;SDS011;4925;52.588;13.370;2022-12-05T02:56:10;64.83;;;31.50;;
9771;SDS011;4925;52.588;13.370;2022-12-05T02:58:38;73.13;;;32.57;;
9771;SDS011;4925;52.588;13.370;2022-12-05T03:01:09;63.73;;;29.87;;
9771;SDS011;4925;52.588;13.370;2022-12-05T03:03:34;66.53;;;29.87;;
9771;SDS011;4925;52.588;13.370;2022-12-05T03:06:04;74.70;;;31.53;;
9771;SDS011;4925;52.588;13.370;2022-12-05T03:08:36;77.63;;;33.67;;
9771;SDS011;4925;52.588;13.370;2022-12-05T03:11:07;69.00;;;31.17;;
9771;SDS011;4925;52.588;13.370;2022-12-05T03:14:09;69.10;;;31.90;;
9771;SDS011;4925;52.588;13.370;2022-12-05T03:16:28;72.20;;;31.73;;
9771;SDS011;4925;52.588;13.370;2022-12-05T03:19:12;67.13;;;29.73;;
9771;SDS011;4925;52.588;13.370;2022-12-05T03:21:50;63.93;;;30.70;;
9771;SDS011;4925;52.588;13.370;2022-12-05T03:24:24;62.73;;;29.50;;
9771;SDS011;4925;52.588;13.370;2022-12-05T03:32:15;63.80;;;27.03;;
9771;SDS011;4925;52.588;13.370;2022-12-05T03:37:23;52.60;;;26.30;;
9771;SDS011;4925;52.588;13.370;2022-12-05T03:40:06;56.00;;;25.27;;
9771;SDS011;4925;52.588;13.370;2022-12-05T03:42:57;55.53;;;25.20;;
9771;SDS011;4925;52.588;13.370;2022-12-05T03:48:49;50.00;;;25.97;;
9771;SDS011;4925;52.588;13.370;2022-12-05T03:51:16;49.93;;;25.53;;
9771;SDS011;4925;52.588;13.370;2022-12-05T03:53:49;48.07;;;24.67;;
9771;SDS011;4925;52.588;13.370;2022-12-05T03:56:18;43.77;;;21.57;;
9771;SDS011;4925;52.588;13.370;2022-12-05T03:59:07;41.13;;;21.20;;
9771;SDS011;4925;52.588;13.370;2022-12-05T04:01:41;36.37;;;20.93;;
9771;SDS011;4925;52.588;13.370;2022-12-05T04:04:11;42.13;;;20.93;;
9771;SDS011;4925;52.588;13.370;2022-12-05T04:06:41;40.63;;;22.30;;
9771;SDS011;4925;52.588;13.370;2022-12-05T04:09:18;42.80;;;21.57;;
9771;SDS011;4925;52.588;13.370;2022-12-05T04:11:53;39.77;;;22.00;;
9771;SDS011;4925;52.588;13.370;2022-12-05T04:14:27;36.53;;;20.03;;
9771;SDS011;4925;52.588;13.370;2022-12-05T04:17:05;39.53;;;21.20;;
9771;SDS011;4925;52.588;13.370;2022-12-05T04:20:03;37.00;;;19.30;;
9771;SDS011;4925;52.588;13.370;2022-12-05T04:22:55;39.40;;;19.67;;
9771;SDS011;4925;52.588;13.370;2022-12-05T04:25:21;39.00;;;21.60;;
9771;SDS011;4925;52.588;13.370;2022-12-05T04:28:05;37.47;;;20.87;;
9771;SDS011;4925;52.588;13.370;2022-12-05T04:33:44;42.20;;;19.90;;
9771;SDS011;4925;52.588;13.370;2022-12-05T04:36:20;35.80;;;20.43;;
9771;SDS011;4925;52.588;13.370;2022-12-05T04:41:30;37.87;;;21.17;;
9771;SDS011;4925;52.588;13.370;2022-12-05T04:44:11;38.73;;;20.17;;
9771;SDS011;4925;52.588;13.370;2022-12-05T04:46:41;34.73;;;18.87;;
9771;SDS011;4925;52.588;13.370;2022-12-05T04:49:09;39.73;;;20.30;;
9771;SDS011;4925;52.588;13.370;2022-12-05T04:51:40;34.50;;;19.27;;
9771;SDS011;4925;52.588;13.370;2022-12-05T04:54:08;33.53;;;17.77;;
9771;SDS011;4925;52.588;13.370;2022-12-05T04:56:40;35.33;;;19.17;;
9771;SDS011;4925;52.588;13.370;2022-12-05T04:59:10;31.43;;;17.53;;
9771;SDS011;4925;52.588;13.370;2022-12-05T05:01:37;32.03;;;18.57;;
9771;SDS011;4925;52.588;13.370;2022-12-05T05:04:11;30.43;;;18.57;;
9771;SDS011;4925;52.588;13.370;2022-12-05T05:06:41;30.70;;;17.47;;
9771;SDS011;4925;52.588;13.370;2022-12-05T05:09:07;36.33;;;18.67;;
9771;SDS011;4925;52.588;13.370;2022-12-05T05:11:34;28.87;;;16.23;;
9771;SDS011;4925;52.588;13.370;2022-12-05T05:14:00;33.37;;;17.87;;
9771;SDS011;4925;52.588;13.370;2022-12-05T05:16:28;32.03;;;18.30;;
9771;SDS011;4925;52.588;13.370;2022-12-05T05:19:01;30.87;;;17.77;;
9771;SDS011;4925;52.588;13.370;2022-12-05T05:24:00;30.03;;;17.00;;
9771;SDS011;4925;52.588;13.370;2022-12-05T05:26:26;32.87;;;17.33;;
9771;SDS011;4925;52.588;13.370;2022-12-05T05:28:53;28.33;;;16.77;;
9771;SDS011;4925;52.588;13.370;2022-12-05T05:31:19;28.70;;;16.17;;
9771;SDS011;4925;52.588;13.370;2022-12-05T05:33:49;33.07;;;17.67;;
9771;SDS011;4925;52.588;13.370;2022-12-05T05:36:16;31.73;;;16.70;;
9771;SDS011;4925;52.588;13.370;2022-12-05T05:38:44;26.03;;;15.70;;
9771;SDS011;4925;52.588;13.370;2022-12-05T05:41:14;37.43;;;18.70;;
9771;SDS011;4925;52.588;13.370;2022-12-05T05:43:41;36.60;;;18.50;;
9771;SDS011;4925;52.588;13.370;2022-12-05T05:46:08;38.00;;;19.77;;
9771;SDS011;4925;52.588;13.370;2022-12-05T05:48:34;29.20;;;17.00;;
9771;SDS011;4925;52.588;13.370;2022-12-05T05:51:01;27.17;;;14.07;;
9771;SDS011;4925;52.588;13.370;2022-12-05T05:53:27;26.10;;;14.67;;
9771;SDS011;4925;52.588;13.370;2022-12-05T05:55:53;21.93;;;14.13;;
9771;SDS011;4925;52.588;13.370;2022-12-05T05:58:19;24.77;;;14.10;;
9771;SDS011;4925;52.588;13.370;2022-12-05T06:00:45;25.47;;;14.70;;
9771;SDS011;4925;52.588;13.370;2022-12-05T06:03:11;22.23;;;13.03;;
9771;SDS011;4925;52.588;13.370;2022-12-05T06:05:36;22.63;;;12.57;;
9771;SDS011;4925;52.588;13.370;2022-12-05T06:08:02;22.40;;;12.43;;
9771;SDS011;4925;52.588;13.370;2022-12-05T06:10:28;19.97;;;12.37;;
9771;SDS011;4925;52.588;13.370;2022-12-05T06:12:54;25.03;;;14.80;;
9771;SDS011;4925;52.588;13.370;2022-12-05T06:15:21;24.77;;;12.30;;
9771;SDS011;4925;52.588;13.370;2022-12-05T06:17:47;19.13;;;12.03;;
9771;SDS011;4925;52.588;13.370;2022-12-05T06:20:13;19.10;;;11.63;;
9771;SDS011;4925;52.588;13.370;2022-12-05T06:22:39;21.97;;;11.20;;
9771;SDS011;4925;52.588;13.370;2022-12-05T06:25:05;19.50;;;10.90;;
9771;SDS011;4925;52.588;13.370;2022-12-05T06:27:31;20.13;;;11.07;;
9771;SDS011;4925;52.588;13.370;2022-12-05T06:29:57;22.73;;;12.27;;
9771;SDS011;4925;52.588;13.370;2022-12-05T06:32:23;18.93;;;11.80;;
9771;SDS011;4925;52.588;13.370;2022-12-05T06:34:49;18.40;;;10.90;;
9771;SDS011;4925;52.588;13.370;2022-12-05T06:37:15;15.47;;;10.67;;
9771;SDS011;4925;52.588;13.370;2022-12-05T06:39:40;18.13;;;11.63;;
9771;SDS011;4925;52.588;13.370;2022-12-05T06:42:06;17.10;;;10.77;;
9771;SDS011;4925;52.588;13.370;2022-12-05T06:44:32;18.87;;;10.83;;
9771;SDS011;4925;52.588;13.370;2022-12-05T06:46:58;17.03;;;10.77;;
9771;SDS011;4925;52.588;13.370;2022-12-05T06:49:23;18.00;;;11.37;;
9771;SDS011;4925;52.588;13.370;2022-12-05T06:51:53;20.60;;;12.43;;
9771;SDS011;4925;52.588;13.370;2022-12-05T06:54:19;17.30;;;10.63;;
9771;SDS011;4925;52.588;13.370;2022-12-05T06:56:45;17.97;;;10.70;;
9771;SDS011;4925;52.588;13.370;2022-12-05T06:59:12;22.63;;;11.70;;
9771;SDS011;4925;52.588;13.370;2022-12-05T07:01:38;17.37;;;10.43;;
9771;SDS011;4925;52.588;13.370;2022-12-05T07:06:35;16.83;;;10.40;;
9771;SDS011;4925;52.588;13.370;2022-12-05T07:09:01;19.80;;;11.37;;
9771;SDS011;4925;52.588;13.370;2022-12-05T07:11:28;13.70;;;9.27;;
9771;SDS011;4925;52.588;13.370;2022-12-05T07:13:54;17.43;;;9.77;;
9771;SDS011;4925;52.588;13.370;2022-12-05T07:16:19;14.83;;;10.17;;
9771;SDS011;4925;52.588;13.370;2022-12-05T07:18:45;16.10;;;10.30;;
9771;SDS011;4925;52.588;13.370;2022-12-05T07:21:12;20.30;;;9.47;;
9771;SDS011;4925;52.588;13.370;2022-12-05T07:23:38;14.37;;;9.30;;
9771;SDS011;4925;52.588;13.370;2022-12-05T07:26:08;19.97;;;10.60;;
9771;SDS011;4925;52.588;13.370;2022-12-05T07:28:39;16.07;;;10.10;;
9771;SDS011;4925;52.588;13.370;2022-12-05T07:31:08;14.67;;;9.43;;
9771;SDS011;4925;52.588;13.370;2022-12-05T07:33:36;17.33;;;10.10;;
9771;SDS011;4925;52.588;13.370;2022-12-05T07:36:06;18.80;;;9.97;;
9771;SDS011;4925;52.588;13.370;2022-12-05T07:38:34;17.43;;;10.70;;
9771;SDS011;4925;52.588;13.370;2022-12-05T07:41:03;19.13;;;11.77;;
9771;SDS011;4925;52.588;13.370;2022-12-05T07:43:32;16.27;;;11.00;;
9771;SDS011;4925;52.588;13.370;2022-12-05T07:46:05;15.50;;;10.63;;
9771;SDS011;4925;52.588;13.370;2022-12-05T07:48:31;16.80;;;11.67;;
9771;SDS011;4925;52.588;13.370;2022-12-05T07:51:01;17.47;;;11.87;;
9771;SDS011;4925;52.588;13.370;2022-12-05T07:53:31;18.23;;;11.50;;
9771;SDS011;4925;52.588;13.370;2022-12-05T07:56:01;17.30;;;11.03;;
9771;SDS011;4925;52.588;13.370;2022-12-05T07:58:29;16.13;;;10.40;;
9771;SDS011;4925;52.588;13.370;2022-12-05T08:00:56;15.13;;;10.57;;
9771;SDS011;4925;52.588;13.370;2022-12-05T08:03:23;17.80;;;11.10;;
9771;SDS011;4925;52.588;13.370;2022-12-05T08:05:48;17.03;;;11.17;;
9771;SDS011;4925;52.588;13.370;2022-12-05T08:08:14;18.57;;;10.47;;
9771;SDS011;4925;52.588;13.370;2022-12-05T08:10:40;15.77;;;11.30;;
9771;SDS011;4925;52.588;13.370;2022-12-05T08:13:05;18.97;;;11.33;;
9771;SDS011;4925;52.588;13.370;2022-12-05T08:15:33;16.23;;;10.43;;
9771;SDS011;4925;52.588;13.370;2022-12-05T08:18:00;18.40;;;10.50;;
9771;SDS011;4925;52.588;13.370;2022-12-05T08:20:26;16.60;;;11.00;;
9771;SDS011;4925;52.588;13.370;2022-12-05T08:22:52;18.67;;;11.90;;
9771;SDS011;4925;52.588;13.370;2022-12-05T08:25:18;17.13;;;11.07;;
9771;SDS011;4925;52.588;13.370;2022-12-05T08:27:44;14.73;;;9.30;;
9771;SDS011;4925;52.588;13.370;2022-12-05T08:30:09;15.90;;;9.40;;
9771;SDS011;4925;52.588;13.370;2022-12-05T08:32:35;13.03;;;9.00;;
9771;SDS011;4925;52.588;13.370;2022-12-05T08:35:01;14.60;;;9.47;;
9771;SDS011;4925;52.588;13.370;2022-12-05T08:37:27;34.37;;;19.50;;
9771;SDS011;4925;52.588;13.370;2022-12-05T08:39:53;16.93;;;11.80;;
9771;SDS011;4925;52.588;13.370;2022-12-05T08:42:18;29.77;;;16.00;;
9771;SDS011;4925;52.588;13.370;2022-12-05T08:44:44;14.63;;;9.57;;
9771;SDS011;4925;52.588;13.370;2022-12-05T08:47:11;13.90;;;9.60;;
9771;SDS011;4925;52.588;13.370;2022-12-05T08:49:36;16.47;;;10.60;;
9771;SDS011;4925;52.588;13.370;2022-12-05T08:52:02;13.67;;;9.20;;
9771;SDS011;4925;52.588;13.370;2022-12-05T08:54:28;13.47;;;9.63;;
9771;SDS011;4925;52.588;13.370;2022-12-05T08:56:53;14.13;;;10.00;;
9771;SDS011;4925;52.588;13.370;2022-12-05T08:59:19;14.60;;;9.57;;
9771;SDS011;4925;52.588;13.370;2022-12-05T09:01:45;15.20;;;10.40;;
9771;SDS011;4925;52.588;13.370;2022-12-05T09:04:13;17.27;;;10.07;;
9771;SDS011;4925;52.588;13.370;2022-12-05T09:06:39;13.80;;;9.70;;
9771;SDS011;4925;52.588;13.370;2022-12-05T09:09:06;14.93;;;9.60;;
9771;SDS011;4925;52.588;13.370;2022-12-05T09:11:36;12.53;;;9.07;;
9771;SDS011;4925;52.588;13.370;2022-12-05T09:14:05;13.43;;;9.67;;
9771;SDS011;4925;52.588;13.370;2022-12-05T09:16:34;13.67;;;10.27;;
9771;SDS011;4925;52.588;13.370;2022-12-05T09:19:02;12.80;;;9.20;;
9771;SDS011;4925;52.588;13.370;2022-12-05T09:21:29;14.20;;;9.20;;
9771;SDS011;4925;52.588;13.370;2022-12-05T09:23:58;14.83;;;10.03;;
9771;SDS011;4925;52.588;13.370;2022-12-05T09:26:25;14.63;;;10.10;;
9771;SDS011;4925;52.588;13.370;2022-12-05T09:28:52;13.00;;;9.17;;
9771;SDS011;4925;52.588;13.370;2022-12-05T09:31:19;13.47;;;9.20;;
9771;SDS011;4925;52.588;13.370;2022-12-05T09:33:47;14.43;;;9.73;;
9771;SDS011;4925;52.588;13.370;2022-12-05T09:36:15;14.67;;;10.07;;
9771;SDS011;4925;52.588;13.370;2022-12-05T09:38:45;29.67;;;10.53;;
9771;SDS011;4925;52.588;13.370;2022-12-05T09:44:18;13.50;;;9.73;;
9771;SDS011;4925;52.588;13.370;2022-12-05T09:46:57;16.60;;;9.20;;
9771;SDS011;4925;52.588;13.370;2022-12-05T09:49:33;13.90;;;9.43;;
9771;SDS011;4925;52.588;13.370;2022-12-05T09:52:02;14.50;;;9.13;;
9771;SDS011;4925;52.588;13.370;2022-12-05T09:54:29;14.23;;;9.83;;
9771;SDS011;4925;52.588;13.370;2022-12-05T09:56:56;14.03;;;9.27;;
9771;SDS011;4925;52.588;13.370;2022-12-05T09:59:22;15.80;;;9.77;;
9771;SDS011;4925;52.588;13.370;2022-12-05T10:04:53;17.57;;;12.60;;
9771;SDS011;4925;52.588;13.370;2022-12-05T10:15:52;15.03;;;9.47;;
9771;SDS011;4925;52.588;13.370;2022-12-05T10:20:50;14.17;;;9.53;;
9771;SDS011;4925;52.588;13.370;2022-12-05T10:26:18;14.43;;;9.27;;
9771;SDS011;4925;52.588;13.370;2022-12-05T10:31:35;14.47;;;10.10;;
9771;SDS011;4925;52.588;13.370;2022-12-05T10:34:27;15.43;;;10.00;;
9771;SDS011;4925;52.588;13.370;2022-12-05T10:39:38;12.87;;;9.93;;
9771;SDS011;4925;52.588;13.370;2022-12-05T10:42:04;14.13;;;10.30;;
9771;SDS011;4925;52.588;13.370;2022-12-05T10:44:33;13.73;;;9.80;;
9771;SDS011;4925;52.588;13.370;2022-12-05T10:46:59;18.30;;;12.17;;
9771;SDS011;4925;52.588;13.370;2022-12-05T10:49:25;16.17;;;10.67;;
9771;SDS011;4925;52.588;13.370;2022-12-05T10:51:52;15.40;;;11.43;;
9771;SDS011;4925;52.588;13.370;2022-12-05T10:54:19;20.77;;;12.43;;
9771;SDS011;4925;52.588;13.370;2022-12-05T10:56:49;27.33;;;14.37;;
9771;SDS011;4925;52.588;13.370;2022-12-05T10:59:17;17.10;;;12.60;;
9771;SDS011;4925;52.588;13.370;2022-12-05T11:01:46;18.00;;;12.43;;
9771;SDS011;4925;52.588;13.370;2022-12-05T11:04:24;15.77;;;11.60;;
9771;SDS011;4925;52.588;13.370;2022-12-05T11:07:01;17.77;;;12.07;;
9771;SDS011;4925;52.588;13.370;2022-12-05T11:12:05;16.00;;;11.40;;
9771;SDS011;4925;52.588;13.370;2022-12-05T11:14:54;16.63;;;12.47;;
9771;SDS011;4925;52.588;13.370;2022-12-05T11:17:26;24.67;;;14.40;;
9771;SDS011;4925;52.588;13.370;2022-12-05T11:19:56;19.53;;;13.10;;
9771;SDS011;4925;52.588;13.370;2022-12-05T11:22:29;17.77;;;11.53;;
9771;SDS011;4925;52.588;13.370;2022-12-05T11:24:59;20.27;;;12.77;;
9771;SDS011;4925;52.588;13.370;2022-12-05T11:27:29;20.07;;;13.40;;
9771;SDS011;4925;52.588;13.370;2022-12-05T11:29:57;16.40;;;12.60;;
9771;SDS011;4925;52.588;13.370;2022-12-05T11:32:39;17.77;;;12.37;;
9771;SDS011;4925;52.588;13.370;2022-12-05T11:37:43;22.53;;;13.90;;
9771;SDS011;4925;52.588;13.370;2022-12-05T11:48:27;18.57;;;12.83;;
9771;SDS011;4925;52.588;13.370;2022-12-05T11:51:23;19.93;;;13.83;;
9771;SDS011;4925;52.588;13.370;2022-12-05T11:54:03;20.53;;;13.97;;
9771;SDS011;4925;52.588;13.370;2022-12-05T11:59:40;24.00;;;13.07;;
9771;SDS011;4925;52.588;13.370;2022-12-05T12:10:12;16.97;;;11.80;;
9771;SDS011;4925;52.588;13.370;2022-12-05T12:21:16;19.07;;;13.23;;
9771;SDS011;4925;52.588;13.370;2022-12-05T12:27:00;16.40;;;11.57;;
9771;SDS011;4925;52.588;13.370;2022-12-05T12:34:53;16.83;;;12.63;;
9771;SDS011;4925;52.588;13.370;2022-12-05T12:37:36;18.77;;;13.03;;
9771;SDS011;4925;52.588;13.370;2022-12-05T12:50:58;20.77;;;14.33;;
9771;SDS011;4925;52.588;13.370;2022-12-05T12:59:28;18.80;;;12.47;;
9771;SDS011;4925;52.588;13.370;2022-12-05T13:04:59;20.43;;;13.30;;
9771;SDS011;4925;52.588;13.370;2022-12-05T13:07:41;19.57;;;13.77;;
9771;SDS011;4925;52.588;13.370;2022-12-05T13:12:58;22.87;;;13.77;;
9771;SDS011;4925;52.588;13.370;2022-12-05T13:15:44;23.37;;;13.60;;
9771;SDS011;4925;52.588;13.370;2022-12-05T13:18:22;24.37;;;14.10;;
9771;SDS011;4925;52.588;13.370;2022-12-05T13:20:56;21.97;;;14.43;;
9771;SDS011;4925;52.588;13.370;2022-12-05T13:23:26;26.87;;;15.47;;
9771;SDS011;4925;52.588;13.370;2022-12-05T13:25:54;21.87;;;14.13;;
9771;SDS011;4925;52.588;13.370;2022-12-05T13:30:48;25.13;;;14.53;;
9771;SDS011;4925;52.588;13.370;2022-12-05T13:33:32;24.73;;;15.77;;
9771;SDS011;4925;52.588;13.370;2022-12-05T13:36:04;31.53;;;16.10;;
9771;SDS011;4925;52.588;13.370;2022-12-05T13:38:57;28.67;;;15.23;;
9771;SDS011;4925;52.588;13.370;2022-12-05T13:41:46;24.83;;;15.93;;
9771;SDS011;4925;52.588;13.370;2022-12-05T13:44:39;26.30;;;15.03;;
9771;SDS011;4925;52.588;13.370;2022-12-05T13:47:17;27.67;;;15.97;;
9771;SDS011;4925;52.588;13.370;2022-12-05T13:49:50;25.67;;;15.60;;
9771;SDS011;4925;52.588;13.370;2022-12-05T13:52:28;25.20;;;16.43;;
9771;SDS011;4925;52.588;13.370;2022-12-05T13:57:47;25.40;;;15.50;;
9771;SDS011;4925;52.588;13.370;2022-12-05T14:07:45;24.67;;;16.50;;
9771;SDS011;4925;52.588;13.370;2022-12-05T14:10:13;29.47;;;17.93;;
9771;SDS011;4925;52.588;13.370;2022-12-05T14:15:40;30.20;;;17.97;;
9771;SDS011;4925;52.588;13.370;2022-12-05T14:23:28;28.00;;;16.80;;
9771;SDS011;4925;52.588;13.370;2022-12-05T14:34:16;26.43;;;17.13;;
9771;SDS011;4925;52.588;13.370;2022-12-05T14:37:02;32.77;;;18.53;;
9771;SDS011;4925;52.588;13.370;2022-12-05T14:39:48;31.30;;;19.03;;
9771;SDS011;4925;52.588;13.370;2022-12-05T14:42:31;34.30;;;19.10;;
9771;SDS011;4925;52.588;13.370;2022-12-05T14:45:22;34.57;;;19.70;;
9771;SDS011;4925;52.588;13.370;2022-12-05T14:50:47;35.77;;;20.20;;
9771;SDS011;4925;52.588;13.370;2022-12-05T14:53:21;35.27;;;20.03;;
9771;SDS011;4925;52.588;13.370;2022-12-05T14:56:07;38.93;;;20.57;;
9771;SDS011;4925;52.588;13.370;2022-12-05T15:06:47;40.57;;;21.23;;
9771;SDS011;4925;52.588;13.370;2022-12-05T15:09:28;35.90;;;20.63;;
9771;SDS011;4925;52.588;13.370;2022-12-05T15:11:54;39.93;;;21.57;;
9771;SDS011;4925;52.588;13.370;2022-12-05T15:14:22;41.43;;;22.47;;
9771;SDS011;4925;52.588;13.370;2022-12-05T15:16:52;39.40;;;22.03;;
9771;SDS011;4925;52.588;13.370;2022-12-05T15:19:21;36.83;;;21.50;;
9771;SDS011;4925;52.588;13.370;2022-12-05T15:21:54;46.07;;;22.73;;
9771;SDS011;4925;52.588;13.370;2022-12-05T15:24:23;40.40;;;22.33;;
9771;SDS011;4925;52.588;13.370;2022-12-05T15:26:53;44.83;;;23.87;;
9771;SDS011;4925;52.588;13.370;2022-12-05T15:36:58;45.10;;;22.57;;
9771;SDS011;4925;52.588;13.370;2022-12-05T15:39:28;46.03;;;23.43;;
9771;SDS011;4925;52.588;13.370;2022-12-05T15:42:13;47.03;;;24.27;;
9771;SDS011;4925;52.588;13.370;2022-12-05T15:44:40;47.07;;;23.77;;
9771;SDS011;4925;52.588;13.370;2022-12-05T15:47:14;47.70;;;24.03;;
9771;SDS011;4925;52.588;13.370;2022-12-05T15:49:45;39.17;;;23.33;;
9771;SDS011;4925;52.588;13.370;2022-12-05T15:54:57;46.43;;;22.73;;
9771;SDS011;4925;52.588;13.370;2022-12-05T15:57:31;52.57;;;24.33;;
9771;SDS011;4925;52.588;13.370;2022-12-05T16:00:03;48.70;;;23.33;;
9771;SDS011;4925;52.588;13.370;2022-12-05T16:02:42;53.37;;;25.10;;
9771;SDS011;4925;52.588;13.370;2022-12-05T16:05:17;69.17;;;26.40;;
9771;SDS011;4925;52.588;13.370;2022-12-05T16:07:43;69.00;;;27.27;;
9771;SDS011;4925;52.588;13.370;2022-12-05T16:10:10;50.03;;;23.63;;
9771;SDS011;4925;52.588;13.370;2022-12-05T16:12:40;54.50;;;24.83;;
9771;SDS011;4925;52.588;13.370;2022-12-05T16:15:09;59.70;;;24.67;;
9771;SDS011;4925;52.588;13.370;2022-12-05T16:17:43;63.30;;;23.90;;
9771;SDS011;4925;52.588;13.370;2022-12-05T16:20:19;50.53;;;24.60;;
9771;SDS011;4925;52.588;13.370;2022-12-05T16:22:53;65.27;;;25.90;;
9771;SDS011;4925;52.588;13.370;2022-12-05T16:25:25;52.20;;;24.90;;
9771;SDS011;4925;52.588;13.370;2022-12-05T16:27:57;52.13;;;24.17;;
9771;SDS011;4925;52.588;13.370;2022-12-05T16:30:26;49.80;;;24.13;;
9771;SDS011;4925;52.588;13.370;2022-12-05T16:33:25;77.57;;;27.10;;
9771;SDS011;4925;52.588;13.370;2022-12-05T16:35:44;61.00;;;25.43;;
9771;SDS011;4925;52.588;13.370;2022-12-05T16:45:54;54.60;;;25.73;;
9771;SDS011;4925;52.588;13.370;2022-12-05T16:48:26;66.27;;;26.17;;
9771;SDS011;4925;52.588;13.370;2022-12-05T16:51:36;53.77;;;24.03;;
9771;SDS011;4925;52.588;13.370;2022-12-05T16:53:49;55.17;;;23.97;;
9771;SDS011;4925;52.588;13.370;2022-12-05T16:56:19;51.10;;;24.77;;
9771;SDS011;4925;52.588;13.370;2022-12-05T16:58:48;52.30;;;24.33;;
9771;SDS011;4925;52.588;13.370;2022-12-05T17:01:18;58.37;;;23.77;;
9771;SDS011;4925;52.588;13.370;2022-12-05T17:03:47;59.03;;;27.40;;
9771;SDS011;4925;52.588;13.370;2022-12-05T17:06:12;62.23;;;25.77;;
9771;SDS011;4925;52.588;13.370;2022-12-05T17:08:39;59.70;;;24.60;;
9771;SDS011;4925;52.588;13.370;2022-12-05T17:11:25;63.00;;;25.90;;
9771;SDS011;4925;52.588;13.370;2022-12-05T17:13:54;54.00;;;24.73;;
9771;SDS011;4925;52.588;13.370;2022-12-05T17:16:21;53.53;;;24.30;;
9771;SDS011;4925;52.588;13.370;2022-12-05T17:18:47;49.93;;;23.87;;
9771;SDS011;4925;52.588;13.370;2022-12-05T17:21:14;58.50;;;24.70;;
9771;SDS011;4925;52.588;13.370;2022-12-05T17:23:41;49.30;;;23.87;;
9771;SDS011;4925;52.588;13.370;2022-12-05T17:26:07;50.53;;;27.03;;
9771;SDS011;4925;52.588;13.370;2022-12-05T17:28:37;58.43;;;25.30;;
9771;SDS011;4925;52.588;13.370;2022-12-05T17:31:03;50.73;;;24.43;;
9771;SDS011;4925;52.588;13.370;2022-12-05T17:33:29;51.17;;;24.23;;
9771;SDS011;4925;52.588;13.370;2022-12-05T17:35:55;48.80;;;23.63;;
9771;SDS011;4925;52.588;13.370;2022-12-05T17:38:21;56.73;;;24.87;;
9771;SDS011;4925;52.588;13.370;2022-12-05T17:40:47;48.03;;;23.27;;
9771;SDS011;4925;52.588;13.370;2022-12-05T17:43:12;52.17;;;24.30;;
9771;SDS011;4925;52.588;13.370;2022-12-05T17:45:39;44.47;;;22.43;;
9771;SDS011;4925;52.588;13.370;2022-12-05T17:48:05;48.47;;;23.43;;
9771;SDS011;4925;52.588;13.370;2022-12-05T17:50:40;40.20;;;19.77;;
9771;SDS011;4925;52.588;13.370;2022-12-05T17:53:07;44.37;;;20.43;;
9771;SDS011;4925;52.588;13.370;2022-12-05T17:55:37;46.37;;;21.77;;
9771;SDS011;4925;52.588;13.370;2022-12-05T17:58:03;42.10;;;21.07;;
9771;SDS011;4925;52.588;13.370;2022-12-05T18:00:29;35.03;;;19.73;;
9771;SDS011;4925;52.588;13.370;2022-12-05T18:02:54;42.27;;;20.87;;
9771;SDS011;4925;52.588;13.370;2022-12-05T18:05:20;39.33;;;20.23;;